createdAt,value
2022-11-16T00:00:31.608Z,60.30
2022-11-16T00:03:05.330Z,61.28
2022-11-16T00:05:38.101Z,51.53
2022-11-16T00:08:05.152Z,57.85
2022-11-16T00:10:34.477Z,59.63
2022-11-16T00:13:01.811Z,62.58
2022-11-16T00:15:53.347Z,57.58
2022-11-16T00:18:35.150Z,58.03
2022-11-16T00:21:17.983Z,58.10
2022-11-16T00:24:12.546Z,54.60
2022-11-16T00:26:42.959Z,58.65
2022-11-16T00:29:36.366Z,57.17
2022-11-16T00:32:23.395Z,42.95
2022-11-16T00:35:12.314Z,47.58
2022-11-16T00:37:51.366Z,50.22
2022-11-16T00:40:24.012Z,51.38
2022-11-16T00:43:08.809Z,54.13
2022-11-16T00:45:45.929Z,50.08
2022-11-16T00:48:13.082Z,55.88
2022-11-16T00:50:40.063Z,55.70
2022-11-16T00:53:09.600Z,52.08
2022-11-16T00:55:36.395Z,53.95
2022-11-16T00:58:13.880Z,45.33
2022-11-16T01:00:47.753Z,44.92
2022-11-16T01:03:15.298Z,42.03
2022-11-16T01:05:41.939Z,46.33
2022-11-16T01:08:09.200Z,44.90
2022-11-16T01:10:41.673Z,49.63
2022-11-16T01:15:35.240Z,45.10
2022-11-16T01:18:02.167Z,38.80
2022-11-16T01:20:29.935Z,43.53
2022-11-16T01:23:02.750Z,42.35
2022-11-16T01:25:29.567Z,39.97
2022-11-16T01:27:56.300Z,30.10
2022-11-16T01:30:25.717Z,33.97
2022-11-16T01:33:01.638Z,35.70
2022-11-16T01:35:28.249Z,26.42
2022-11-16T01:37:54.807Z,29.00
2022-11-16T01:40:21.447Z,25.65
2022-11-16T01:42:48.075Z,38.80
2022-11-16T01:45:44.684Z,39.50
2022-11-16T01:48:20.337Z,38.78
2022-11-16T01:50:49.269Z,37.85
2022-11-16T01:53:17.899Z,41.25
2022-11-16T01:55:52.295Z,39.00
2022-11-16T01:58:29.782Z,39.22
2022-11-16T02:00:56.533Z,29.17
2022-11-16T02:03:23.615Z,38.33
2022-11-16T02:05:56.458Z,42.60
2022-11-16T02:09:10.161Z,25.40
2022-11-16T02:11:44.739Z,39.67
2022-11-16T02:14:44.108Z,36.58
2022-11-16T02:17:29.105Z,40.42
2022-11-16T02:20:08.370Z,38.17
2022-11-16T02:22:53.383Z,35.58
2022-11-16T02:25:49.409Z,39.47
2022-11-16T02:28:53.811Z,36.38
2022-11-16T02:31:33.518Z,37.25
2022-11-16T02:34:06.235Z,37.97
2022-11-16T02:36:39.501Z,29.58
2022-11-16T02:39:18.736Z,34.72
2022-11-16T02:41:54.293Z,36.75
2022-11-16T02:44:45.682Z,36.58
2022-11-16T02:47:22.765Z,31.90
2022-11-16T02:50:00.047Z,20.00
2022-11-16T02:52:30.095Z,27.40
2022-11-16T02:55:00.038Z,24.40
2022-11-16T02:57:54.633Z,26.42
2022-11-16T03:00:28.068Z,30.60
2022-11-16T03:06:39.630Z,28.67
2022-11-16T03:09:12.501Z,32.80
2022-11-16T03:11:59.604Z,35.17
2022-11-16T03:14:54.411Z,25.80
2022-11-16T03:17:31.538Z,32.00
2022-11-16T03:20:07.414Z,32.95
2022-11-16T03:23:10.832Z,20.63
2022-11-16T03:25:47.182Z,26.20
2022-11-16T03:28:37.985Z,33.33
2022-11-16T03:31:37.110Z,33.53
2022-11-16T03:34:12.755Z,31.52
2022-11-16T03:36:49.122Z,20.60
2022-11-16T03:39:26.219Z,32.75
2022-11-16T03:41:54.932Z,27.63
2022-11-16T03:44:22.239Z,32.60
2022-11-16T03:46:54.458Z,33.42
2022-11-16T03:49:22.943Z,33.83
2022-11-16T03:51:50.122Z,31.58
2022-11-16T03:54:19.785Z,31.13
2022-11-16T03:56:46.379Z,30.85
2022-11-16T03:59:12.978Z,30.25
2022-11-16T04:01:44.512Z,19.13
2022-11-16T04:04:31.581Z,28.05
2022-11-16T04:07:20.420Z,31.65
2022-11-16T04:10:08.715Z,27.25
2022-11-16T04:13:00.220Z,30.33
2022-11-16T04:15:53.908Z,29.08
2022-11-16T04:18:39.305Z,30.40
2022-11-16T04:21:27.640Z,25.08
2022-11-16T04:24:15.818Z,21.23
2022-11-16T04:27:16.622Z,26.98
2022-11-16T04:29:43.899Z,27.75
2022-11-16T04:32:35.305Z,28.30
2022-11-16T04:35:23.546Z,20.63
2022-11-16T04:37:55.554Z,22.85
2022-11-16T04:40:24.340Z,26.40
2022-11-16T04:43:03.474Z,27.17
2022-11-16T04:45:53.888Z,25.08
2022-11-16T04:48:28.443Z,25.00
2022-11-16T04:50:55.583Z,21.38
2022-11-16T04:53:25.256Z,21.75
2022-11-16T04:55:59.565Z,25.83
2022-11-16T04:58:27.718Z,24.05
2022-11-16T05:00:59.112Z,14.50
2022-11-16T05:03:26.078Z,26.17
2022-11-16T05:05:52.961Z,23.88
2022-11-16T05:08:19.577Z,20.40
2022-11-16T05:10:51.178Z,16.75
2022-11-16T05:13:22.528Z,20.53
2022-11-16T05:15:57.919Z,22.55
2022-11-16T05:18:24.660Z,16.88
2022-11-16T05:21:04.470Z,18.95
2022-11-16T05:23:50.018Z,19.17
2022-11-16T05:26:16.749Z,20.63
2022-11-16T05:28:52.403Z,19.95
2022-11-16T05:31:23.011Z,24.30
2022-11-16T05:33:58.759Z,27.67
2022-11-16T05:36:25.446Z,24.85
2022-11-16T05:38:56.482Z,22.30
2022-11-16T05:41:23.158Z,28.55
2022-11-16T05:43:54.213Z,25.88
2022-11-16T05:46:22.041Z,23.05
2022-11-16T05:48:52.129Z,22.40
2022-11-16T05:51:21.683Z,15.65
2022-11-16T05:53:55.118Z,22.92
2022-11-16T05:56:34.456Z,27.48
2022-11-16T05:59:11.232Z,26.67
2022-11-16T06:01:43.422Z,18.45
2022-11-16T06:04:14.617Z,28.23
2022-11-16T06:06:50.932Z,25.45
2022-11-16T06:09:21.896Z,17.17
2022-11-16T06:11:50.073Z,30.88
2022-11-16T06:14:16.864Z,31.80
2022-11-16T06:16:58.904Z,18.65
2022-11-16T06:19:33.417Z,20.88
2022-11-16T06:22:00.177Z,18.85
2022-11-16T06:24:26.807Z,34.00
2022-11-16T06:26:54.355Z,23.65
2022-11-16T06:29:24.005Z,23.83
2022-11-16T06:31:55.656Z,21.52
2022-11-16T06:34:22.282Z,18.92
2022-11-16T06:36:48.926Z,32.88
2022-11-16T06:39:15.660Z,32.50
2022-11-16T06:41:42.444Z,22.88
2022-11-16T06:44:12.197Z,20.30
2022-11-16T06:46:38.810Z,27.77
2022-11-16T06:49:05.462Z,27.58
2022-11-16T06:51:45.463Z,27.25
2022-11-16T06:54:17.702Z,28.15
2022-11-16T06:56:44.450Z,22.20
2022-11-16T06:59:14.195Z,28.63
2022-11-16T07:01:46.229Z,23.63
2022-11-16T07:04:20.137Z,26.38
2022-11-16T07:06:47.633Z,28.05
2022-11-16T07:09:15.150Z,25.67
2022-11-16T07:11:44.641Z,26.52
2022-11-16T07:14:12.429Z,29.00
2022-11-16T07:16:39.578Z,27.40
2022-11-16T07:19:06.571Z,32.85
2022-11-16T07:21:34.551Z,34.83
2022-11-16T07:24:01.800Z,37.08
2022-11-16T07:26:32.565Z,31.30
2022-11-16T07:29:04.440Z,36.50
2022-11-16T07:31:32.584Z,37.25
2022-11-16T07:34:04.890Z,44.85
2022-11-16T07:36:37.134Z,38.55
2022-11-16T07:39:07.584Z,36.58
2022-11-16T07:41:38.544Z,42.03
2022-11-16T07:44:10.899Z,35.08
2022-11-16T07:46:46.533Z,33.50
2022-11-16T07:49:18.410Z,35.78
2022-11-16T07:51:51.267Z,32.80
2022-11-16T07:54:18.179Z,39.05
2022-11-16T07:56:48.411Z,32.72
2022-11-16T07:59:20.865Z,40.15
2022-11-16T08:04:20.651Z,34.53
2022-11-16T08:09:16.900Z,36.88
2022-11-16T08:11:46.160Z,42.35
2022-11-16T08:14:12.914Z,34.47
2022-11-16T08:16:39.778Z,40.38
2022-11-16T08:19:12.975Z,35.83
2022-11-16T08:21:39.570Z,38.35
2022-11-16T08:24:14.751Z,34.95
2022-11-16T08:26:54.188Z,33.08
2022-11-16T08:29:24.298Z,71.00
2022-11-16T08:31:50.917Z,38.85
2022-11-16T08:34:17.780Z,45.53
2022-11-16T08:36:44.592Z,46.22
2022-11-16T08:39:11.366Z,29.45
2022-11-16T08:41:42.265Z,28.25
2022-11-16T08:44:08.977Z,33.40
2022-11-16T08:46:35.970Z,27.73
2022-11-16T08:49:02.776Z,39.00
2022-11-16T08:51:31.287Z,33.58
2022-11-16T08:54:05.299Z,33.67
2022-11-16T08:56:46.273Z,32.38
2022-11-16T08:59:15.825Z,40.22
2022-11-16T09:01:44.385Z,47.28
2022-11-16T09:04:15.633Z,31.92
2022-11-16T09:06:45.887Z,43.53
2022-11-16T09:09:19.556Z,31.15
2022-11-16T09:11:48.336Z,120.22
2022-11-16T09:14:15.696Z,34.17
2022-11-16T09:16:42.337Z,69.95
2022-11-16T09:19:09.003Z,42.00
2022-11-16T09:21:37.570Z,31.85
2022-11-16T09:24:09.502Z,33.40
2022-11-16T09:26:36.187Z,66.47
2022-11-16T09:29:07.539Z,39.65
2022-11-16T09:31:37.220Z,36.72
2022-11-16T09:34:07.890Z,39.53
2022-11-16T09:36:37.141Z,28.38
2022-11-16T09:39:28.798Z,30.27
2022-11-16T09:42:22.623Z,31.95
2022-11-16T09:45:12.234Z,30.98
2022-11-16T09:47:51.837Z,29.65
2022-11-16T09:50:56.513Z,107.50
2022-11-16T09:53:51.306Z,75.28
2022-11-16T09:56:29.123Z,34.30
2022-11-16T09:59:05.750Z,68.15
2022-11-16T10:01:46.497Z,105.22
2022-11-16T10:04:19.386Z,73.28
2022-11-16T10:07:08.183Z,27.25
2022-11-16T10:09:36.144Z,59.60
2022-11-16T10:12:16.935Z,48.22
2022-11-16T10:15:01.463Z,52.05
2022-11-16T10:18:00.797Z,28.08
2022-11-16T10:20:43.204Z,80.65
2022-11-16T10:23:17.734Z,55.67
2022-11-16T10:25:51.932Z,53.00
2022-11-16T10:28:27.774Z,20.95
2022-11-16T10:30:57.275Z,19.13
2022-11-16T10:33:35.757Z,37.58
2022-11-16T10:36:15.892Z,17.45
2022-11-16T10:38:44.334Z,33.67
2022-11-16T10:41:20.299Z,17.70
2022-11-16T10:43:48.434Z,18.58
2022-11-16T10:46:24.394Z,16.48
2022-11-16T10:49:17.518Z,20.20
2022-11-16T10:51:44.530Z,26.85
2022-11-16T10:54:17.509Z,18.73
2022-11-16T10:56:55.445Z,20.10
2022-11-16T10:59:22.160Z,19.25
2022-11-16T11:02:01.233Z,15.13
2022-11-16T11:04:30.376Z,19.58
2022-11-16T11:07:23.772Z,11.90
2022-11-16T11:09:56.562Z,14.38
2022-11-16T11:12:40.699Z,13.30
2022-11-16T11:15:29.639Z,12.18
2022-11-16T11:18:24.053Z,10.68
2022-11-16T11:21:10.281Z,12.05
2022-11-16T11:23:44.383Z,12.10
2022-11-16T11:26:40.428Z,13.00
2022-11-16T11:29:45.905Z,13.10
2022-11-16T11:32:24.517Z,12.43
2022-11-16T11:34:54.201Z,10.50
2022-11-16T11:37:39.437Z,9.77
2022-11-16T11:40:31.934Z,9.90
2022-11-16T11:43:17.704Z,9.05
2022-11-16T11:45:54.229Z,9.40
2022-11-16T11:48:47.887Z,8.60
2022-11-16T11:51:45.425Z,8.02
2022-11-16T11:54:23.279Z,8.55
2022-11-16T11:56:53.699Z,7.38
2022-11-16T11:59:26.654Z,7.53
2022-11-16T12:02:09.043Z,7.28
2022-11-16T12:04:51.400Z,7.45
2022-11-16T12:07:33.538Z,7.43
2022-11-16T12:10:33.262Z,6.55
2022-11-16T12:13:24.015Z,7.50
2022-11-16T12:16:11.798Z,8.05
2022-11-16T12:18:38.400Z,7.38
2022-11-16T12:21:18.242Z,8.38
2022-11-16T12:23:51.449Z,7.22
2022-11-16T12:26:27.015Z,11.63
2022-11-16T12:29:08.368Z,7.28
2022-11-16T12:31:35.042Z,8.02
2022-11-16T12:34:26.209Z,8.48
2022-11-16T12:37:17.497Z,10.57
2022-11-16T12:39:48.971Z,10.77
2022-11-16T12:42:22.270Z,7.40
2022-11-16T12:45:17.112Z,9.88
2022-11-16T12:48:22.051Z,10.10
2022-11-16T12:51:04.212Z,8.10
2022-11-16T12:54:15.998Z,8.68
2022-11-16T12:56:49.299Z,8.45
2022-11-16T12:59:50.924Z,7.85
2022-11-16T13:02:56.201Z,9.20
2022-11-16T13:05:31.809Z,10.13
2022-11-16T13:08:05.477Z,8.40
2022-11-16T13:10:39.072Z,8.48
2022-11-16T13:13:49.744Z,11.93
2022-11-16T13:16:04.317Z,7.43
2022-11-16T13:18:35.527Z,7.82
2022-11-16T13:21:24.860Z,9.55
2022-11-16T13:24:03.111Z,9.55
2022-11-16T13:26:34.330Z,27.05
2022-11-16T13:29:21.835Z,90.10
2022-11-16T13:31:58.061Z,26.38
2022-11-16T13:34:32.887Z,42.03
2022-11-16T13:36:59.920Z,87.45
2022-11-16T13:39:59.249Z,16.88
2022-11-16T13:42:26.923Z,11.73
2022-11-16T13:44:56.064Z,72.38
2022-11-16T13:47:30.481Z,42.78
2022-11-16T13:50:01.404Z,10.02
2022-11-16T13:56:05.274Z,10.02
2022-11-16T13:58:36.588Z,11.23
2022-11-16T14:01:03.303Z,41.22
2022-11-16T14:03:38.642Z,14.63
2022-11-16T14:06:45.916Z,19.20
2022-11-16T14:09:44.872Z,16.23
2022-11-16T14:12:46.706Z,27.48
2022-11-16T14:15:22.042Z,19.77
2022-11-16T14:17:49.613Z,23.15
2022-11-16T14:20:43.684Z,9.35
2022-11-16T14:23:25.205Z,13.90
2022-11-16T14:26:12.840Z,29.73
2022-11-16T14:29:17.412Z,13.88
2022-11-16T14:31:57.309Z,35.17
2022-11-16T14:34:32.036Z,52.83
2022-11-16T14:37:06.342Z,49.58
2022-11-16T14:39:43.740Z,9.07
2022-11-16T14:42:38.146Z,8.25
2022-11-16T14:45:31.766Z,9.23
2022-11-16T14:48:14.700Z,32.67
2022-11-16T14:50:57.611Z,12.10
2022-11-16T14:53:25.510Z,67.75
2022-11-16T14:55:55.425Z,17.05
2022-11-16T14:58:25.074Z,12.45
2022-11-16T15:01:07.961Z,28.00
2022-11-16T15:03:41.065Z,15.57
2022-11-16T15:06:08.563Z,34.30
2022-11-16T15:08:44.850Z,29.02
2022-11-16T15:11:25.339Z,10.93
2022-11-16T15:13:54.692Z,15.27
2022-11-16T15:16:22.228Z,15.63
2022-11-16T15:18:57.372Z,10.45
2022-11-16T15:21:24.936Z,47.70
2022-11-16T15:24:15.580Z,10.05
2022-11-16T15:26:43.811Z,19.58
2022-11-16T15:29:25.300Z,13.50
2022-11-16T15:31:52.851Z,29.73
2022-11-16T15:34:20.519Z,14.30
2022-11-16T15:36:49.398Z,38.47
2022-11-16T15:39:25.948Z,20.30
2022-11-16T15:42:03.470Z,39.10
2022-11-16T15:44:32.477Z,21.80
2022-11-16T15:46:59.736Z,27.95
2022-11-16T15:49:41.321Z,28.65
2022-11-16T15:52:08.200Z,30.20
2022-11-16T15:54:59.277Z,16.23
2022-11-16T15:57:25.928Z,26.60
2022-11-16T15:59:57.593Z,17.48
2022-11-16T16:02:28.702Z,22.08
2022-11-16T16:04:55.337Z,18.13
2022-11-16T16:07:42.555Z,37.83
2022-11-16T16:10:13.403Z,31.42
2022-11-16T16:12:55.238Z,30.67
2022-11-16T16:15:25.913Z,20.30
2022-11-16T16:17:56.255Z,19.80
2022-11-16T16:20:25.005Z,28.83
2022-11-16T16:22:54.300Z,31.15
2022-11-16T16:25:33.756Z,19.05
2022-11-16T16:28:03.918Z,33.03
2022-11-16T16:30:31.871Z,24.85
2022-11-16T16:32:58.797Z,40.42
2022-11-16T16:35:27.170Z,17.83
2022-11-16T16:38:02.027Z,17.52
2022-11-16T16:40:29.485Z,19.05
2022-11-16T16:42:56.788Z,16.88
2022-11-16T16:45:36.046Z,17.52
2022-11-16T16:48:09.631Z,18.00
2022-11-16T16:50:36.858Z,19.60
2022-11-16T16:53:03.801Z,18.10
2022-11-16T16:55:36.944Z,31.33
2022-11-16T16:58:04.153Z,17.88
2022-11-16T17:03:15.965Z,20.27
2022-11-16T17:05:45.784Z,16.40
2022-11-16T17:08:12.578Z,15.55
2022-11-16T17:10:39.477Z,16.35
2022-11-16T17:13:10.483Z,15.73
2022-11-16T17:15:40.133Z,17.13
2022-11-16T17:18:06.959Z,15.43
2022-11-16T17:20:34.692Z,17.92
2022-11-16T17:23:03.231Z,16.25
2022-11-16T17:25:33.073Z,15.07
2022-11-16T17:28:02.720Z,14.52
2022-11-16T17:30:30.482Z,19.67
2022-11-16T17:33:00.214Z,15.60
2022-11-16T17:35:26.875Z,13.32
2022-11-16T17:38:01.871Z,18.25
2022-11-16T17:40:28.611Z,20.30
2022-11-16T17:42:58.673Z,18.30
2022-11-16T17:45:29.416Z,14.93
2022-11-16T17:47:57.355Z,13.32
2022-11-16T17:50:35.036Z,13.15
2022-11-16T17:53:02.058Z,17.23
2022-11-16T17:55:35.965Z,12.02
2022-11-16T17:58:03.835Z,11.43
2022-11-16T18:00:30.468Z,13.57
2022-11-16T18:02:57.069Z,15.70
2022-11-16T18:05:25.219Z,11.65
2022-11-16T18:07:52.059Z,14.63
2022-11-16T18:10:20.036Z,14.98
2022-11-16T18:12:57.009Z,13.05
2022-11-16T18:15:35.424Z,11.95
2022-11-16T18:18:08.625Z,17.30
2022-11-16T18:20:37.605Z,18.92
2022-11-16T18:23:08.751Z,13.48
2022-11-16T18:25:37.037Z,14.13
2022-11-16T18:28:05.400Z,13.07
2022-11-16T18:30:35.120Z,13.75
2022-11-16T18:33:01.789Z,10.18
2022-11-16T18:35:30.969Z,11.15
2022-11-16T18:37:57.793Z,13.45
2022-11-16T18:40:26.384Z,14.10
2022-11-16T18:42:54.185Z,13.23
2022-11-16T18:45:25.491Z,15.25
2022-11-16T18:47:53.689Z,15.13
2022-11-16T18:50:26.515Z,12.98
2022-11-16T18:52:53.626Z,16.23
2022-11-16T18:55:23.030Z,16.90
2022-11-16T18:57:54.492Z,16.30
2022-11-16T19:00:28.286Z,14.05
2022-11-16T19:02:55.917Z,13.27
2022-11-16T19:05:30.635Z,16.45
2022-11-16T19:07:57.546Z,15.10
2022-11-16T19:10:25.447Z,15.90
2022-11-16T19:12:53.117Z,15.85
2022-11-16T19:15:20.047Z,14.63
2022-11-16T19:18:14.161Z,17.08
2022-11-16T19:20:34.300Z,12.23
2022-11-16T19:23:07.231Z,18.15
2022-11-16T19:25:33.852Z,16.65
2022-11-16T19:28:08.296Z,16.23
2022-11-16T19:30:36.947Z,14.50
2022-11-16T19:33:04.160Z,10.50
2022-11-16T19:35:34.016Z,12.00
2022-11-16T19:38:01.127Z,14.82
2022-11-16T19:40:28.609Z,18.08
2022-11-16T19:42:55.475Z,22.35
2022-11-16T19:45:24.515Z,15.60
2022-11-16T19:47:57.334Z,22.77
2022-11-16T19:50:27.334Z,18.02
2022-11-16T19:52:54.165Z,20.65
2022-11-16T19:55:21.082Z,15.73
2022-11-16T19:57:48.036Z,14.25
2022-11-16T20:00:21.234Z,18.08
2022-11-16T20:02:49.357Z,19.08
2022-11-16T20:05:16.912Z,23.13
2022-11-16T20:07:44.994Z,23.55
2022-11-16T20:10:12.140Z,14.98
2022-11-16T20:12:38.770Z,20.85
2022-11-16T20:15:06.198Z,22.23
2022-11-16T20:17:32.961Z,15.93
2022-11-16T20:19:59.660Z,12.65
2022-11-16T20:22:29.503Z,15.32
2022-11-16T20:24:56.166Z,21.00
2022-11-16T20:27:22.919Z,13.40
2022-11-16T20:29:53.136Z,25.52
2022-11-16T20:32:19.981Z,24.27
2022-11-16T20:34:46.884Z,21.48
2022-11-16T20:37:17.861Z,23.73
2022-11-16T20:39:49.297Z,23.38
2022-11-16T20:42:20.633Z,21.87
2022-11-16T20:44:48.979Z,24.83
2022-11-16T20:47:17.093Z,15.80
2022-11-16T20:49:44.297Z,26.67
2022-11-16T20:52:15.595Z,16.27
2022-11-16T20:54:42.527Z,18.70
2022-11-16T20:57:09.454Z,26.17
2022-11-16T20:59:36.986Z,19.45
2022-11-16T21:02:03.767Z,24.05
2022-11-16T21:04:30.791Z,21.63
2022-11-16T21:06:57.469Z,22.33
2022-11-16T21:09:25.837Z,15.32
2022-11-16T21:12:12.722Z,22.02
2022-11-16T21:14:39.598Z,14.88
2022-11-16T21:17:06.812Z,16.25
2022-11-16T21:19:34.850Z,17.85
2022-11-16T21:22:02.195Z,14.15
2022-11-16T21:24:29.433Z,25.17
2022-11-16T21:26:56.350Z,22.63
2022-11-16T21:29:27.423Z,21.50
2022-11-16T21:31:57.202Z,12.00
2022-11-16T21:34:24.517Z,17.60
2022-11-16T21:36:53.280Z,20.33
2022-11-16T21:39:20.124Z,17.27
2022-11-16T21:41:47.143Z,13.65
2022-11-16T21:44:14.239Z,19.42
2022-11-16T21:46:43.470Z,17.10
2022-11-16T21:49:22.769Z,20.42
2022-11-16T21:51:53.274Z,19.77
2022-11-16T21:54:20.119Z,17.50
2022-11-16T21:56:47.634Z,12.88
2022-11-16T21:59:15.035Z,15.50
2022-11-16T22:02:00.755Z,21.05
2022-11-16T22:04:49.950Z,12.68
2022-11-16T22:07:36.546Z,22.90
2022-11-16T22:10:07.108Z,18.30
2022-11-16T22:12:35.831Z,22.83
2022-11-16T22:15:03.188Z,12.30
2022-11-16T22:17:29.926Z,21.15
2022-11-16T22:19:58.930Z,15.65
2022-11-16T22:22:27.739Z,18.23
2022-11-16T22:24:58.491Z,15.45
2022-11-16T22:27:26.987Z,12.23
2022-11-16T22:29:54.220Z,16.80
2022-11-16T22:32:27.956Z,17.38
2022-11-16T22:34:54.630Z,18.48
2022-11-16T22:37:22.555Z,14.23
2022-11-16T22:39:50.554Z,18.65
2022-11-16T22:42:48.581Z,20.52
2022-11-16T22:45:19.785Z,18.08
2022-11-16T22:47:52.100Z,17.27
2022-11-16T22:50:24.164Z,17.05
2022-11-16T22:52:54.339Z,19.30
2022-11-16T22:55:22.908Z,19.15
2022-11-16T22:57:54.013Z,12.90
2022-11-16T23:00:23.760Z,21.15
2022-11-16T23:02:52.231Z,12.05
2022-11-16T23:05:19.620Z,18.13
2022-11-16T23:07:49.158Z,13.60
2022-11-16T23:10:16.871Z,20.63
2022-11-16T23:13:02.177Z,11.93
2022-11-16T23:15:48.228Z,12.27
2022-11-16T23:18:15.635Z,16.77
2022-11-16T23:21:00.859Z,12.57
2022-11-16T23:23:50.685Z,10.93
2022-11-16T23:26:42.418Z,15.77
2022-11-16T23:29:10.856Z,16.33
2022-11-16T23:31:38.192Z,16.88
2022-11-16T23:34:05.647Z,16.50
2022-11-16T23:36:36.375Z,10.55
2022-11-16T23:39:03.084Z,16.85
2022-11-16T23:41:48.785Z,17.67
2022-11-16T23:44:15.866Z,17.33
2022-11-16T23:46:42.696Z,16.27
2022-11-16T23:49:09.308Z,10.98
2022-11-16T23:51:36.029Z,12.93
2022-11-16T23:54:05.313Z,16.73
2022-11-16T23:56:33.378Z,9.95
2022-11-16T23:59:04.351Z,12.32
